Terminal Aerodrome Forecast
Issued by NWS Quad Cities IA IL

Home | Current Version | Previous Version | Text Only | Print | Product List | Glossary On
Versions: 1 2 3 4 5 6 7 8 9 10 11 12 13 14 15 16 17 18 19 20 21 22 23 24 25 26 27 28 29
000
FTUS43 KDVN 282021 AAA
TAFDBQ
TAF AMD
KDBQ 282021Z 2820/2918 16010KT P6SM SCT080 OVC100
      TEMPO 2820/2824 3SM SHRA BR BKN025
     FM290000 VRB03KT P6SM VCTS BKN035CB
     FM290600 VRB03KT 4SM BR SCT050
      TEMPO 2908/2912 2SM BR
     FM291400 33006KT P6SM BKN025=

USA.gov is the U.S. government's official web portal to all federal, state and local government web resources and services.